sensor_id;sensor_type;location;lat;lon;timestamp;P1;durP1;ratioP1;P2;durP2;ratioP2
77078;SDS011;66004;55.096;38.760;2022-12-26T00:01:54;3.88;;;2.13;;
77078;SDS011;66004;55.096;38.760;2022-12-26T00:04:20;3.55;;;2.10;;
77078;SDS011;66004;55.096;38.760;2022-12-26T00:06:47;5.50;;;2.85;;
77078;SDS011;66004;55.096;38.760;2022-12-26T00:09:13;8.63;;;3.05;;
77078;SDS011;66004;55.096;38.760;2022-12-26T00:11:39;4.57;;;2.35;;
77078;SDS011;66004;55.096;38.760;2022-12-26T00:14:22;6.68;;;2.90;;
77078;SDS011;66004;55.096;38.760;2022-12-26T00:16:48;5.65;;;2.67;;
77078;SDS011;66004;55.096;38.760;2022-12-26T00:19:13;4.63;;;2.88;;
77078;SDS011;66004;55.096;38.760;2022-12-26T00:21:39;5.47;;;2.63;;
77078;SDS011;66004;55.096;38.760;2022-12-26T00:24:05;7.90;;;2.67;;
77078;SDS011;66004;55.096;38.760;2022-12-26T00:26:31;3.70;;;3.00;;
77078;SDS011;66004;55.096;38.760;2022-12-26T00:28:59;4.78;;;2.78;;
77078;SDS011;66004;55.096;38.760;2022-12-26T00:31:26;3.40;;;2.45;;
77078;SDS011;66004;55.096;38.760;2022-12-26T00:33:54;3.65;;;2.42;;
77078;SDS011;66004;55.096;38.760;2022-12-26T00:36:21;5.82;;;2.80;;
77078;SDS011;66004;55.096;38.760;2022-12-26T00:38:48;4.72;;;2.60;;
77078;SDS011;66004;55.096;38.760;2022-12-26T00:41:14;5.70;;;2.55;;
77078;SDS011;66004;55.096;38.760;2022-12-26T00:43:41;5.18;;;2.60;;
77078;SDS011;66004;55.096;38.760;2022-12-26T00:46:07;3.10;;;1.58;;
77078;SDS011;66004;55.096;38.760;2022-12-26T00:48:33;2.80;;;1.45;;
77078;SDS011;66004;55.096;38.760;2022-12-26T00:50:59;4.15;;;2.10;;
77078;SDS011;66004;55.096;38.760;2022-12-26T00:53:25;3.13;;;1.65;;
77078;SDS011;66004;55.096;38.760;2022-12-26T00:58:17;2.92;;;1.55;;
77078;SDS011;66004;55.096;38.760;2022-12-26T01:00:43;4.03;;;1.85;;
77078;SDS011;66004;55.096;38.760;2022-12-26T01:03:09;2.55;;;1.70;;
77078;SDS011;66004;55.096;38.760;2022-12-26T01:05:39;4.85;;;2.30;;
77078;SDS011;66004;55.096;38.760;2022-12-26T01:08:08;2.72;;;1.70;;
77078;SDS011;66004;55.096;38.760;2022-12-26T01:10:34;2.45;;;1.85;;
77078;SDS011;66004;55.096;38.760;2022-12-26T01:13:00;3.90;;;2.05;;
77078;SDS011;66004;55.096;38.760;2022-12-26T01:15:26;6.55;;;1.98;;
77078;SDS011;66004;55.096;38.760;2022-12-26T01:17:51;3.25;;;2.30;;
77078;SDS011;66004;55.096;38.760;2022-12-26T01:20:17;2.55;;;1.98;;
77078;SDS011;66004;55.096;38.760;2022-12-26T01:22:42;5.13;;;2.55;;
77078;SDS011;66004;55.096;38.760;2022-12-26T01:25:09;3.22;;;2.00;;
77078;SDS011;66004;55.096;38.760;2022-12-26T01:27:35;3.40;;;1.83;;
77078;SDS011;66004;55.096;38.760;2022-12-26T01:30:01;3.72;;;2.08;;
77078;SDS011;66004;55.096;38.760;2022-12-26T01:32:26;4.97;;;2.22;;
77078;SDS011;66004;55.096;38.760;2022-12-26T01:34:52;4.00;;;2.20;;
77078;SDS011;66004;55.096;38.760;2022-12-26T01:37:19;4.13;;;2.33;;
77078;SDS011;66004;55.096;38.760;2022-12-26T01:39:47;6.07;;;2.22;;
77078;SDS011;66004;55.096;38.760;2022-12-26T01:42:14;6.32;;;3.00;;
77078;SDS011;66004;55.096;38.760;2022-12-26T01:50:35;5.95;;;2.13;;
77078;SDS011;66004;55.096;38.760;2022-12-26T01:53:03;2.33;;;1.67;;
77078;SDS011;66004;55.096;38.760;2022-12-26T01:55:57;4.25;;;2.28;;
77078;SDS011;66004;55.096;38.760;2022-12-26T01:58:28;3.55;;;2.03;;
77078;SDS011;66004;55.096;38.760;2022-12-26T02:00:58;4.88;;;1.90;;
77078;SDS011;66004;55.096;38.760;2022-12-26T02:03:26;2.08;;;1.58;;
77078;SDS011;66004;55.096;38.760;2022-12-26T02:06:11;2.00;;;1.60;;
77078;SDS011;66004;55.096;38.760;2022-12-26T02:08:39;2.60;;;1.73;;
77078;SDS011;66004;55.096;38.760;2022-12-26T02:11:11;3.60;;;2.00;;
77078;SDS011;66004;55.096;38.760;2022-12-26T02:13:43;4.05;;;1.75;;
77078;SDS011;66004;55.096;38.760;2022-12-26T02:18:36;3.35;;;1.80;;
77078;SDS011;66004;55.096;38.760;2022-12-26T02:30:00;5.07;;;1.70;;
77078;SDS011;66004;55.096;38.760;2022-12-26T02:35:36;1.95;;;1.30;;
77078;SDS011;66004;55.096;38.760;2022-12-26T02:44:21;2.25;;;1.25;;
77078;SDS011;66004;55.096;38.760;2022-12-26T02:47:12;1.75;;;1.13;;
77078;SDS011;66004;55.096;38.760;2022-12-26T02:55:44;3.65;;;1.80;;
77078;SDS011;66004;55.096;38.760;2022-12-26T02:58:43;3.20;;;1.08;;
77078;SDS011;66004;55.096;38.760;2022-12-26T03:01:44;2.95;;;1.05;;
77078;SDS011;66004;55.096;38.760;2022-12-26T03:04:32;4.03;;;1.10;;
77078;SDS011;66004;55.096;38.760;2022-12-26T03:07:24;2.60;;;1.00;;
77078;SDS011;66004;55.096;38.760;2022-12-26T03:10:18;3.72;;;1.05;;
77078;SDS011;66004;55.096;38.760;2022-12-26T03:13:12;1.85;;;1.08;;
77078;SDS011;66004;55.096;38.760;2022-12-26T03:15:49;2.45;;;1.00;;
77078;SDS011;66004;55.096;38.760;2022-12-26T03:18:39;6.72;;;1.00;;
77078;SDS011;66004;55.096;38.760;2022-12-26T03:21:08;3.15;;;1.02;;
77078;SDS011;66004;55.096;38.760;2022-12-26T03:23:35;1.77;;;0.93;;
77078;SDS011;66004;55.096;38.760;2022-12-26T03:26:06;4.60;;;1.33;;
77078;SDS011;66004;55.096;38.760;2022-12-26T03:28:54;2.85;;;1.00;;
77078;SDS011;66004;55.096;38.760;2022-12-26T03:31:40;1.67;;;1.00;;
77078;SDS011;66004;55.096;38.760;2022-12-26T03:34:05;2.22;;;0.70;;
77078;SDS011;66004;55.096;38.760;2022-12-26T03:46:36;1.55;;;1.05;;
77078;SDS011;66004;55.096;38.760;2022-12-26T03:55:14;2.15;;;0.95;;
77078;SDS011;66004;55.096;38.760;2022-12-26T04:00:58;3.15;;;1.40;;
77078;SDS011;66004;55.096;38.760;2022-12-26T04:03:48;2.40;;;0.88;;
77078;SDS011;66004;55.096;38.760;2022-12-26T04:06:42;2.83;;;1.05;;
77078;SDS011;66004;55.096;38.760;2022-12-26T04:09:44;1.70;;;0.80;;
77078;SDS011;66004;55.096;38.760;2022-12-26T04:12:32;6.75;;;1.23;;
77078;SDS011;66004;55.096;38.760;2022-12-26T04:18:12;2.35;;;1.20;;
77078;SDS011;66004;55.096;38.760;2022-12-26T04:23:55;1.98;;;1.23;;
77078;SDS011;66004;55.096;38.760;2022-12-26T04:27:02;2.63;;;1.10;;
77078;SDS011;66004;55.096;38.760;2022-12-26T04:29:50;6.63;;;1.67;;
77078;SDS011;66004;55.096;38.760;2022-12-26T04:32:42;2.80;;;1.15;;
77078;SDS011;66004;55.096;38.760;2022-12-26T04:35:45;1.80;;;0.98;;
77078;SDS011;66004;55.096;38.760;2022-12-26T04:38:43;4.65;;;1.17;;
77078;SDS011;66004;55.096;38.760;2022-12-26T04:41:32;1.85;;;1.25;;
77078;SDS011;66004;55.096;38.760;2022-12-26T04:44:18;2.83;;;1.10;;
77078;SDS011;66004;55.096;38.760;2022-12-26T04:46:48;1.70;;;0.77;;
77078;SDS011;66004;55.096;38.760;2022-12-26T04:49:16;1.65;;;1.13;;
77078;SDS011;66004;55.096;38.760;2022-12-26T04:52:02;2.67;;;1.08;;
77078;SDS011;66004;55.096;38.760;2022-12-26T04:54:30;1.42;;;0.98;;
77078;SDS011;66004;55.096;38.760;2022-12-26T04:56:56;2.53;;;1.05;;
77078;SDS011;66004;55.096;38.760;2022-12-26T04:59:22;2.72;;;1.23;;
77078;SDS011;66004;55.096;38.760;2022-12-26T05:01:48;2.92;;;1.13;;
77078;SDS011;66004;55.096;38.760;2022-12-26T05:04:32;2.65;;;1.25;;
77078;SDS011;66004;55.096;38.760;2022-12-26T05:10:10;3.38;;;1.38;;
77078;SDS011;66004;55.096;38.760;2022-12-26T05:12:40;2.90;;;1.20;;
77078;SDS011;66004;55.096;38.760;2022-12-26T05:15:06;3.25;;;1.10;;
77078;SDS011;66004;55.096;38.760;2022-12-26T05:17:32;1.80;;;0.88;;
77078;SDS011;66004;55.096;38.760;2022-12-26T05:20:16;3.40;;;0.90;;
77078;SDS011;66004;55.096;38.760;2022-12-26T05:23:00;3.63;;;1.10;;
77078;SDS011;66004;55.096;38.760;2022-12-26T05:25:45;2.83;;;0.70;;
77078;SDS011;66004;55.096;38.760;2022-12-26T05:28:31;1.20;;;0.75;;
77078;SDS011;66004;55.096;38.760;2022-12-26T05:31:05;1.92;;;1.35;;
77078;SDS011;66004;55.096;38.760;2022-12-26T05:33:32;1.73;;;1.05;;
77078;SDS011;66004;55.096;38.760;2022-12-26T05:36:16;4.25;;;1.30;;
77078;SDS011;66004;55.096;38.760;2022-12-26T05:38:44;3.45;;;1.95;;
77078;SDS011;66004;55.096;38.760;2022-12-26T05:41:10;2.72;;;1.10;;
77078;SDS011;66004;55.096;38.760;2022-12-26T05:43:36;2.95;;;1.02;;
77078;SDS011;66004;55.096;38.760;2022-12-26T05:46:01;4.28;;;1.05;;
77078;SDS011;66004;55.096;38.760;2022-12-26T05:48:27;1.55;;;0.90;;
77078;SDS011;66004;55.096;38.760;2022-12-26T05:50:56;3.25;;;1.20;;
77078;SDS011;66004;55.096;38.760;2022-12-26T05:53:23;3.28;;;1.00;;
77078;SDS011;66004;55.096;38.760;2022-12-26T05:55:48;5.22;;;1.00;;
77078;SDS011;66004;55.096;38.760;2022-12-26T05:58:14;4.75;;;1.33;;
77078;SDS011;66004;55.096;38.760;2022-12-26T06:00:39;2.60;;;0.73;;
77078;SDS011;66004;55.096;38.760;2022-12-26T06:03:05;4.30;;;0.98;;
77078;SDS011;66004;55.096;38.760;2022-12-26T06:05:30;4.18;;;1.50;;
77078;SDS011;66004;55.096;38.760;2022-12-26T06:07:56;2.85;;;0.80;;
77078;SDS011;66004;55.096;38.760;2022-12-26T06:10:21;1.05;;;0.93;;
77078;SDS011;66004;55.096;38.760;2022-12-26T06:12:47;1.52;;;1.00;;
77078;SDS011;66004;55.096;38.760;2022-12-26T06:15:12;3.22;;;1.27;;
77078;SDS011;66004;55.096;38.760;2022-12-26T06:17:38;3.65;;;1.10;;
77078;SDS011;66004;55.096;38.760;2022-12-26T06:20:04;8.60;;;1.52;;
77078;SDS011;66004;55.096;38.760;2022-12-26T06:22:30;6.03;;;1.10;;
77078;SDS011;66004;55.096;38.760;2022-12-26T06:24:56;2.65;;;1.05;;
77078;SDS011;66004;55.096;38.760;2022-12-26T06:27:21;2.92;;;1.33;;
77078;SDS011;66004;55.096;38.760;2022-12-26T06:29:47;1.75;;;0.90;;
77078;SDS011;66004;55.096;38.760;2022-12-26T06:32:12;3.28;;;1.40;;
77078;SDS011;66004;55.096;38.760;2022-12-26T06:34:38;4.10;;;1.30;;
77078;SDS011;66004;55.096;38.760;2022-12-26T06:37:03;1.50;;;1.02;;
77078;SDS011;66004;55.096;38.760;2022-12-26T06:39:29;1.92;;;0.82;;
77078;SDS011;66004;55.096;38.760;2022-12-26T06:41:55;2.70;;;1.00;;
77078;SDS011;66004;55.096;38.760;2022-12-26T06:44:20;2.85;;;1.08;;
77078;SDS011;66004;55.096;38.760;2022-12-26T06:46:45;6.03;;;1.30;;
77078;SDS011;66004;55.096;38.760;2022-12-26T06:49:11;3.17;;;1.20;;
77078;SDS011;66004;55.096;38.760;2022-12-26T06:51:37;2.78;;;1.00;;
77078;SDS011;66004;55.096;38.760;2022-12-26T06:54:02;1.55;;;0.88;;
77078;SDS011;66004;55.096;38.760;2022-12-26T06:56:28;4.85;;;1.05;;
77078;SDS011;66004;55.096;38.760;2022-12-26T06:58:55;3.90;;;1.00;;
77078;SDS011;66004;55.096;38.760;2022-12-26T07:01:26;1.92;;;0.90;;
77078;SDS011;66004;55.096;38.760;2022-12-26T07:03:53;3.17;;;1.20;;
77078;SDS011;66004;55.096;38.760;2022-12-26T07:09:07;4.18;;;1.30;;
77078;SDS011;66004;55.096;38.760;2022-12-26T07:11:37;2.35;;;0.77;;
77078;SDS011;66004;55.096;38.760;2022-12-26T07:14:04;2.08;;;0.95;;
77078;SDS011;66004;55.096;38.760;2022-12-26T07:16:32;2.15;;;1.00;;
77078;SDS011;66004;55.096;38.760;2022-12-26T07:18:58;2.08;;;0.60;;
77078;SDS011;66004;55.096;38.760;2022-12-26T07:21:24;2.50;;;0.68;;
77078;SDS011;66004;55.096;38.760;2022-12-26T07:23:51;1.88;;;0.80;;
77078;SDS011;66004;55.096;38.760;2022-12-26T07:26:17;3.60;;;0.90;;
77078;SDS011;66004;55.096;38.760;2022-12-26T07:28:43;1.50;;;0.88;;
77078;SDS011;66004;55.096;38.760;2022-12-26T07:31:08;5.45;;;1.02;;
77078;SDS011;66004;55.096;38.760;2022-12-26T07:33:40;4.05;;;1.33;;
77078;SDS011;66004;55.096;38.760;2022-12-26T07:36:05;3.25;;;1.10;;
77078;SDS011;66004;55.096;38.760;2022-12-26T07:38:31;3.15;;;1.48;;
77078;SDS011;66004;55.096;38.760;2022-12-26T07:40:58;6.50;;;2.00;;
77078;SDS011;66004;55.096;38.760;2022-12-26T07:43:24;4.25;;;1.70;;
77078;SDS011;66004;55.096;38.760;2022-12-26T07:48:16;5.63;;;1.58;;
77078;SDS011;66004;55.096;38.760;2022-12-26T07:50:41;6.53;;;2.38;;
77078;SDS011;66004;55.096;38.760;2022-12-26T07:53:11;16.20;;;5.05;;
77078;SDS011;66004;55.096;38.760;2022-12-26T07:55:38;7.70;;;3.28;;
77078;SDS011;66004;55.096;38.760;2022-12-26T07:58:03;1.83;;;1.15;;
77078;SDS011;66004;55.096;38.760;2022-12-26T08:00:29;4.28;;;1.58;;
77078;SDS011;66004;55.096;38.760;2022-12-26T08:02:54;2.80;;;1.45;;
77078;SDS011;66004;55.096;38.760;2022-12-26T08:05:20;8.20;;;2.58;;
77078;SDS011;66004;55.096;38.760;2022-12-26T08:07:46;6.70;;;2.50;;
77078;SDS011;66004;55.096;38.760;2022-12-26T08:10:12;15.70;;;5.63;;
77078;SDS011;66004;55.096;38.760;2022-12-26T08:12:38;2.90;;;1.15;;
77078;SDS011;66004;55.096;38.760;2022-12-26T08:15:04;4.32;;;1.23;;
77078;SDS011;66004;55.096;38.760;2022-12-26T08:17:29;3.95;;;1.38;;
77078;SDS011;66004;55.096;38.760;2022-12-26T08:19:57;1.52;;;0.77;;
77078;SDS011;66004;55.096;38.760;2022-12-26T08:22:22;2.67;;;1.15;;
77078;SDS011;66004;55.096;38.760;2022-12-26T08:24:48;4.53;;;2.05;;
77078;SDS011;66004;55.096;38.760;2022-12-26T08:27:13;1.50;;;0.75;;
77078;SDS011;66004;55.096;38.760;2022-12-26T08:29:40;5.15;;;2.42;;
77078;SDS011;66004;55.096;38.760;2022-12-26T08:32:05;1.33;;;0.43;;
77078;SDS011;66004;55.096;38.760;2022-12-26T08:34:34;1.98;;;0.85;;
77078;SDS011;66004;55.096;38.760;2022-12-26T08:37:00;1.25;;;0.90;;
77078;SDS011;66004;55.096;38.760;2022-12-26T08:39:26;3.78;;;0.73;;
77078;SDS011;66004;55.096;38.760;2022-12-26T08:41:52;3.28;;;1.23;;
77078;SDS011;66004;55.096;38.760;2022-12-26T08:44:17;2.63;;;0.80;;
77078;SDS011;66004;55.096;38.760;2022-12-26T08:46:43;1.58;;;1.20;;
77078;SDS011;66004;55.096;38.760;2022-12-26T08:49:09;4.03;;;1.27;;
77078;SDS011;66004;55.096;38.760;2022-12-26T08:51:35;2.08;;;0.98;;
77078;SDS011;66004;55.096;38.760;2022-12-26T08:54:00;1.35;;;0.50;;
77078;SDS011;66004;55.096;38.760;2022-12-26T08:56:26;1.77;;;0.52;;
77078;SDS011;66004;55.096;38.760;2022-12-26T08:58:53;1.00;;;0.50;;
77078;SDS011;66004;55.096;38.760;2022-12-26T09:01:20;2.70;;;0.90;;
77078;SDS011;66004;55.096;38.760;2022-12-26T09:03:50;3.42;;;0.75;;
77078;SDS011;66004;55.096;38.760;2022-12-26T09:06:17;1.50;;;0.93;;
77078;SDS011;66004;55.096;38.760;2022-12-26T09:08:42;1.33;;;0.60;;
77078;SDS011;66004;55.096;38.760;2022-12-26T09:11:12;0.85;;;0.65;;
77078;SDS011;66004;55.096;38.760;2022-12-26T09:13:39;1.90;;;0.90;;
77078;SDS011;66004;55.096;38.760;2022-12-26T09:16:10;1.70;;;1.00;;
77078;SDS011;66004;55.096;38.760;2022-12-26T09:18:36;2.28;;;0.70;;
77078;SDS011;66004;55.096;38.760;2022-12-26T09:23:28;2.50;;;1.13;;
77078;SDS011;66004;55.096;38.760;2022-12-26T09:25:54;1.70;;;0.63;;
77078;SDS011;66004;55.096;38.760;2022-12-26T09:28:20;1.75;;;0.85;;
77078;SDS011;66004;55.096;38.760;2022-12-26T09:33:12;4.32;;;0.77;;
77078;SDS011;66004;55.096;38.760;2022-12-26T09:35:40;1.17;;;0.60;;
77078;SDS011;66004;55.096;38.760;2022-12-26T09:38:06;2.53;;;0.80;;
77078;SDS011;66004;55.096;38.760;2022-12-26T09:40:34;1.88;;;0.63;;
77078;SDS011;66004;55.096;38.760;2022-12-26T09:43:17;4.50;;;1.13;;
77078;SDS011;66004;55.096;38.760;2022-12-26T09:46:35;0.98;;;0.65;;
77078;SDS011;66004;55.096;38.760;2022-12-26T09:51:52;4.85;;;0.85;;
77078;SDS011;66004;55.096;38.760;2022-12-26T09:56:53;3.78;;;1.08;;
77078;SDS011;66004;55.096;38.760;2022-12-26T09:59:20;2.65;;;0.52;;
77078;SDS011;66004;55.096;38.760;2022-12-26T10:01:50;1.55;;;0.80;;
77078;SDS011;66004;55.096;38.760;2022-12-26T10:04:21;2.92;;;0.80;;
77078;SDS011;66004;55.096;38.760;2022-12-26T10:12:47;2.75;;;1.17;;
77078;SDS011;66004;55.096;38.760;2022-12-26T10:15:43;2.65;;;0.85;;
77078;SDS011;66004;55.096;38.760;2022-12-26T10:24:21;1.65;;;0.90;;
77078;SDS011;66004;55.096;38.760;2022-12-26T10:27:04;2.58;;;1.20;;
77078;SDS011;66004;55.096;38.760;2022-12-26T10:29:37;1.83;;;1.08;;
77078;SDS011;66004;55.096;38.760;2022-12-26T10:32:10;2.92;;;0.88;;
77078;SDS011;66004;55.096;38.760;2022-12-26T10:34:42;1.52;;;0.70;;
77078;SDS011;66004;55.096;38.760;2022-12-26T10:39:51;2.38;;;0.75;;
77078;SDS011;66004;55.096;38.760;2022-12-26T10:45:49;2.97;;;0.95;;
77078;SDS011;66004;55.096;38.760;2022-12-26T10:47:52;1.25;;;0.63;;
77078;SDS011;66004;55.096;38.760;2022-12-26T10:50:22;1.67;;;0.98;;
77078;SDS011;66004;55.096;38.760;2022-12-26T10:52:50;1.75;;;0.90;;
77078;SDS011;66004;55.096;38.760;2022-12-26T10:55:17;2.92;;;0.88;;
77078;SDS011;66004;55.096;38.760;2022-12-26T10:57:46;1.08;;;0.40;;
77078;SDS011;66004;55.096;38.760;2022-12-26T11:03:01;2.63;;;0.73;;
77078;SDS011;66004;55.096;38.760;2022-12-26T11:05:27;2.10;;;0.85;;
77078;SDS011;66004;55.096;38.760;2022-12-26T11:07:56;1.90;;;0.65;;
77078;SDS011;66004;55.096;38.760;2022-12-26T11:10:32;1.02;;;0.57;;
77078;SDS011;66004;55.096;38.760;2022-12-26T11:13:01;1.50;;;0.95;;
77078;SDS011;66004;55.096;38.760;2022-12-26T11:20:41;1.33;;;0.93;;
77078;SDS011;66004;55.096;38.760;2022-12-26T11:23:21;1.85;;;0.80;;
77078;SDS011;66004;55.096;38.760;2022-12-26T11:25:51;2.35;;;0.70;;
77078;SDS011;66004;55.096;38.760;2022-12-26T11:28:33;3.13;;;0.70;;
77078;SDS011;66004;55.096;38.760;2022-12-26T11:31:02;2.03;;;0.90;;
77078;SDS011;66004;55.096;38.760;2022-12-26T11:33:42;2.38;;;1.20;;
77078;SDS011;66004;55.096;38.760;2022-12-26T11:39:21;1.52;;;0.80;;
77078;SDS011;66004;55.096;38.760;2022-12-26T11:46:59;1.75;;;1.13;;
77078;SDS011;66004;55.096;38.760;2022-12-26T11:49:47;1.20;;;0.60;;
77078;SDS011;66004;55.096;38.760;2022-12-26T11:57:58;0.85;;;0.65;;
77078;SDS011;66004;55.096;38.760;2022-12-26T12:00:35;1.40;;;0.90;;
77078;SDS011;66004;55.096;38.760;2022-12-26T12:03:26;2.47;;;0.82;;
77078;SDS011;66004;55.096;38.760;2022-12-26T12:05:57;2.22;;;0.80;;
77078;SDS011;66004;55.096;38.760;2022-12-26T12:11:08;1.00;;;0.52;;
77078;SDS011;66004;55.096;38.760;2022-12-26T12:13:54;2.22;;;0.70;;
77078;SDS011;66004;55.096;38.760;2022-12-26T12:45:32;2.43;;;0.70;;
77078;SDS011;66004;55.096;38.760;2022-12-26T12:48:24;1.55;;;0.80;;
77078;SDS011;66004;55.096;38.760;2022-12-26T13:01:23;1.23;;;0.70;;
77078;SDS011;66004;55.096;38.760;2022-12-26T13:07:02;3.72;;;0.70;;
77078;SDS011;66004;55.096;38.760;2022-12-26T13:09:36;2.90;;;0.93;;
77078;SDS011;66004;55.096;38.760;2022-12-26T13:12:20;3.28;;;1.20;;
77078;SDS011;66004;55.096;38.760;2022-12-26T13:14:51;3.60;;;1.05;;
77078;SDS011;66004;55.096;38.760;2022-12-26T13:17:22;2.65;;;0.90;;
77078;SDS011;66004;55.096;38.760;2022-12-26T13:19:58;1.13;;;0.82;;
77078;SDS011;66004;55.096;38.760;2022-12-26T13:22:26;3.17;;;0.90;;
77078;SDS011;66004;55.096;38.760;2022-12-26T13:25:22;1.30;;;0.98;;
77078;SDS011;66004;55.096;38.760;2022-12-26T13:27:49;2.15;;;0.80;;
77078;SDS011;66004;55.096;38.760;2022-12-26T13:30:18;2.75;;;0.98;;
77078;SDS011;66004;55.096;38.760;2022-12-26T13:32:43;2.83;;;1.02;;
77078;SDS011;66004;55.096;38.760;2022-12-26T13:38:12;4.63;;;0.98;;
77078;SDS011;66004;55.096;38.760;2022-12-26T13:40:37;3.38;;;1.30;;
77078;SDS011;66004;55.096;38.760;2022-12-26T13:43:21;2.90;;;1.00;;
77078;SDS011;66004;55.096;38.760;2022-12-26T13:51:58;2.35;;;1.00;;
77078;SDS011;66004;55.096;38.760;2022-12-26T13:59:50;2.50;;;0.90;;
77078;SDS011;66004;55.096;38.760;2022-12-26T14:03:10;5.30;;;1.20;;
77078;SDS011;66004;55.096;38.760;2022-12-26T14:35:35;3.10;;;0.77;;
77078;SDS011;66004;55.096;38.760;2022-12-26T14:38:32;2.30;;;0.93;;
77078;SDS011;66004;55.096;38.760;2022-12-26T14:41:04;1.67;;;1.02;;
77078;SDS011;66004;55.096;38.760;2022-12-26T14:43:33;1.65;;;1.10;;
77078;SDS011;66004;55.096;38.760;2022-12-26T14:46:00;1.45;;;0.60;;
77078;SDS011;66004;55.096;38.760;2022-12-26T14:58:38;1.85;;;1.10;;
77078;SDS011;66004;55.096;38.760;2022-12-26T15:03:41;2.63;;;1.00;;
77078;SDS011;66004;55.096;38.760;2022-12-26T15:13:01;2.47;;;0.77;;
77078;SDS011;66004;55.096;38.760;2022-12-26T15:15:31;1.52;;;0.70;;
77078;SDS011;66004;55.096;38.760;2022-12-26T15:26:23;2.85;;;1.27;;
77078;SDS011;66004;55.096;38.760;2022-12-26T15:32:00;1.85;;;0.88;;
77078;SDS011;66004;55.096;38.760;2022-12-26T15:34:50;1.33;;;0.80;;
77078;SDS011;66004;55.096;38.760;2022-12-26T15:37:39;2.63;;;0.95;;
77078;SDS011;66004;55.096;38.760;2022-12-26T15:40:15;7.78;;;1.08;;
77078;SDS011;66004;55.096;38.760;2022-12-26T15:48:36;1.10;;;0.68;;
77078;SDS011;66004;55.096;38.760;2022-12-26T15:51:12;2.35;;;0.90;;
77078;SDS011;66004;55.096;38.760;2022-12-26T16:01:49;2.22;;;1.25;;
77078;SDS011;66004;55.096;38.760;2022-12-26T16:04:33;2.40;;;1.17;;
77078;SDS011;66004;55.096;38.760;2022-12-26T16:07:25;2.42;;;1.20;;
77078;SDS011;66004;55.096;38.760;2022-12-26T16:10:01;4.95;;;2.47;;
77078;SDS011;66004;55.096;38.760;2022-12-26T16:12:39;2.85;;;1.50;;
77078;SDS011;66004;55.096;38.760;2022-12-26T16:17:33;2.08;;;0.93;;
77078;SDS011;66004;55.096;38.760;2022-12-26T16:20:14;3.95;;;1.15;;
77078;SDS011;66004;55.096;38.760;2022-12-26T16:23:16;4.80;;;1.05;;
77078;SDS011;66004;55.096;38.760;2022-12-26T16:25:45;2.83;;;1.50;;
77078;SDS011;66004;55.096;38.760;2022-12-26T16:28:44;2.10;;;1.10;;
77078;SDS011;66004;55.096;38.760;2022-12-26T16:31:15;2.40;;;1.23;;
77078;SDS011;66004;55.096;38.760;2022-12-26T16:33:45;3.13;;;1.42;;
77078;SDS011;66004;55.096;38.760;2022-12-26T16:36:16;4.15;;;1.35;;
77078;SDS011;66004;55.096;38.760;2022-12-26T16:38:47;4.00;;;1.65;;
77078;SDS011;66004;55.096;38.760;2022-12-26T16:41:32;4.03;;;1.58;;
77078;SDS011;66004;55.096;38.760;2022-12-26T16:44:21;2.65;;;1.30;;
77078;SDS011;66004;55.096;38.760;2022-12-26T16:46:58;4.47;;;1.40;;
77078;SDS011;66004;55.096;38.760;2022-12-26T16:49:26;2.72;;;1.20;;
77078;SDS011;66004;55.096;38.760;2022-12-26T16:51:54;3.45;;;1.70;;
77078;SDS011;66004;55.096;38.760;2022-12-26T16:56:49;4.60;;;1.42;;
77078;SDS011;66004;55.096;38.760;2022-12-26T16:59:22;4.05;;;1.27;;
77078;SDS011;66004;55.096;38.760;2022-12-26T17:01:51;4.28;;;1.33;;
77078;SDS011;66004;55.096;38.760;2022-12-26T17:04:21;3.15;;;1.00;;
77078;SDS011;66004;55.096;38.760;2022-12-26T17:06:59;3.97;;;1.27;;
77078;SDS011;66004;55.096;38.760;2022-12-26T17:09:44;2.55;;;1.25;;
77078;SDS011;66004;55.096;38.760;2022-12-26T17:12:18;3.03;;;0.93;;
77078;SDS011;66004;55.096;38.760;2022-12-26T17:14:46;1.83;;;0.93;;
77078;SDS011;66004;55.096;38.760;2022-12-26T17:19:48;3.45;;;1.30;;
77078;SDS011;66004;55.096;38.760;2022-12-26T17:22:20;2.45;;;0.85;;
77078;SDS011;66004;55.096;38.760;2022-12-26T17:24:47;3.03;;;1.20;;
77078;SDS011;66004;55.096;38.760;2022-12-26T17:27:24;1.38;;;0.90;;
77078;SDS011;66004;55.096;38.760;2022-12-26T17:32:25;2.70;;;1.23;;
77078;SDS011;66004;55.096;38.760;2022-12-26T17:34:54;3.03;;;1.35;;
77078;SDS011;66004;55.096;38.760;2022-12-26T17:37:23;3.80;;;1.30;;
77078;SDS011;66004;55.096;38.760;2022-12-26T17:39:56;1.95;;;1.00;;
77078;SDS011;66004;55.096;38.760;2022-12-26T17:42:30;2.90;;;1.58;;
77078;SDS011;66004;55.096;38.760;2022-12-26T17:45:08;2.85;;;0.85;;
77078;SDS011;66004;55.096;38.760;2022-12-26T17:47:38;1.65;;;0.93;;
77078;SDS011;66004;55.096;38.760;2022-12-26T17:50:04;3.75;;;1.27;;
77078;SDS011;66004;55.096;38.760;2022-12-26T17:52:29;3.10;;;1.23;;
77078;SDS011;66004;55.096;38.760;2022-12-26T17:54:56;2.70;;;1.02;;
77078;SDS011;66004;55.096;38.760;2022-12-26T17:57:26;1.50;;;1.00;;
77078;SDS011;66004;55.096;38.760;2022-12-26T17:59:53;1.98;;;0.88;;
77078;SDS011;66004;55.096;38.760;2022-12-26T18:04:45;1.42;;;0.80;;
77078;SDS011;66004;55.096;38.760;2022-12-26T18:07:16;4.20;;;1.50;;
77078;SDS011;66004;55.096;38.760;2022-12-26T18:09:44;2.03;;;1.10;;
77078;SDS011;66004;55.096;38.760;2022-12-26T18:12:12;4.13;;;1.40;;
77078;SDS011;66004;55.096;38.760;2022-12-26T18:14:38;2.63;;;1.23;;
77078;SDS011;66004;55.096;38.760;2022-12-26T18:17:04;3.05;;;1.10;;
77078;SDS011;66004;55.096;38.760;2022-12-26T18:19:30;4.35;;;1.55;;
77078;SDS011;66004;55.096;38.760;2022-12-26T18:21:56;2.97;;;1.20;;
77078;SDS011;66004;55.096;38.760;2022-12-26T18:24:21;3.08;;;1.00;;
77078;SDS011;66004;55.096;38.760;2022-12-26T18:26:47;3.70;;;1.40;;
77078;SDS011;66004;55.096;38.760;2022-12-26T18:31:39;2.42;;;0.98;;
77078;SDS011;66004;55.096;38.760;2022-12-26T18:34:04;2.88;;;1.60;;
77078;SDS011;66004;55.096;38.760;2022-12-26T18:36:32;1.95;;;0.98;;
77078;SDS011;66004;55.096;38.760;2022-12-26T18:38:59;4.45;;;1.33;;
77078;SDS011;66004;55.096;38.760;2022-12-26T18:41:25;3.05;;;1.40;;
77078;SDS011;66004;55.096;38.760;2022-12-26T18:43:50;2.97;;;1.33;;
77078;SDS011;66004;55.096;38.760;2022-12-26T18:46:17;10.43;;;1.52;;
77078;SDS011;66004;55.096;38.760;2022-12-26T18:48:45;3.35;;;1.40;;
77078;SDS011;66004;55.096;38.760;2022-12-26T18:51:11;3.17;;;1.20;;
77078;SDS011;66004;55.096;38.760;2022-12-26T18:53:37;3.00;;;0.98;;
77078;SDS011;66004;55.096;38.760;2022-12-26T18:56:03;2.40;;;1.42;;
77078;SDS011;66004;55.096;38.760;2022-12-26T18:58:29;3.65;;;1.80;;
77078;SDS011;66004;55.096;38.760;2022-12-26T19:00:56;2.67;;;1.42;;
77078;SDS011;66004;55.096;38.760;2022-12-26T19:03:22;2.40;;;1.38;;
77078;SDS011;66004;55.096;38.760;2022-12-26T19:05:47;3.67;;;1.92;;
77078;SDS011;66004;55.096;38.760;2022-12-26T19:08:13;3.15;;;1.17;;
77078;SDS011;66004;55.096;38.760;2022-12-26T19:10:38;2.67;;;1.55;;
77078;SDS011;66004;55.096;38.760;2022-12-26T19:13:11;6.35;;;1.95;;
77078;SDS011;66004;55.096;38.760;2022-12-26T19:15:37;2.70;;;1.40;;
77078;SDS011;66004;55.096;38.760;2022-12-26T19:18:04;2.38;;;1.30;;
77078;SDS011;66004;55.096;38.760;2022-12-26T19:20:30;4.25;;;1.20;;
77078;SDS011;66004;55.096;38.760;2022-12-26T19:22:55;4.13;;;1.38;;
77078;SDS011;66004;55.096;38.760;2022-12-26T19:25:22;2.42;;;1.40;;
77078;SDS011;66004;55.096;38.760;2022-12-26T19:27:49;2.85;;;1.55;;